^^
Station Historical Data
Daily Summary for February 2, 2018 Units:  Metric    English   Both
« Previous Day
Next Day »
Daily Weekly Monthly Yearly Custom
  High: Low: Average:
Temperature: -17.8 °C 14.4 °C 20 °C
Dew Point: -17.8 °C -3.1 °C 8.2 °C
Humidity: Humidity% 12% 56%
Wind Speed: 0km/h 7.9km/h 17.4km/h
Wind Gust: 0km/h - -
Wind- - SSW
Pressure: 0 hPa 1006 hPa -
Precipitation: 0 mm    
Historical Graphs
 
 
Tabular Data for February 2, 2018
Time Temperature Dew Point Pressure Wind Wind Speed Wind Gust Humidity Rainfall Rate (Hourly) solar Conditions
-17.8 °C -17.8 °C 0 hPa Calm     Humidity% 0 mm SolarRadiationWatts/m^2 W/m2 Conditions
00:01 17.9 °C 11.2 °C 1007 hPa SSW 19.5 km/h 24.1 km/h 65% 0 mm 0.0 W/m2
00:06 17.8 °C 11.1 °C 1006.7 hPa SSW 20.9 km/h 25.7 km/h 65% 0 mm 0.0 W/m2
00:16 17.6 °C 11.4 °C 1007 hPa SSW 20.9 km/h 25.7 km/h 67% 0 mm 0.0 W/m2
00:21 17.6 °C 11.4 °C 1007 hPa South 20.9 km/h 29 km/h 67% 0 mm 0.0 W/m2
00:26 17.5 °C 11.5 °C 1007 hPa South 24.1 km/h 27.4 km/h 68% 0 mm 0.0 W/m2
00:32 17.4 °C 11.4 °C 1007.3 hPa South 17.7 km/h 24.1 km/h 68% 0 mm 0.0 W/m2
00:37 17.4 °C 11.7 °C 1007 hPa SSW 22.7 km/h 25.7 km/h 69% 0 mm 0.0 W/m2
00:42 17.3 °C 11.6 °C 1007 hPa SSW 22.7 km/h 22.7 km/h 69% 0 mm 0.0 W/m2
00:52 17.1 °C 12 °C 1007 hPa SSW 17.7 km/h 22.5 km/h 72% 0 mm 0.0 W/m2
00:57 16.9 °C 11.6 °C 1007 hPa South 17.7 km/h 22.5 km/h 71% 0 mm 0.0 W/m2
01:02 16.8 °C 11.7 °C 1007 hPa SSW 17.7 km/h 22.5 km/h 72% 0 mm 0.0 W/m2
01:07 16.7 °C 11.6 °C 1007 hPa South 17.7 km/h 24.1 km/h 72% 0 mm 0.0 W/m2
01:12 16.7 °C 11.6 °C 1007 hPa SSW 24.1 km/h 24.1 km/h 72% 0 mm 0.0 W/m2
01:17 16.6 °C 11.7 °C 1007 hPa South 17.7 km/h 20.9 km/h 73% 0 mm 0.0 W/m2
01:22 16.4 °C 11.8 °C 1006.7 hPa South 24.1 km/h 24.1 km/h 74% 0 mm 0.0 W/m2
01:27 16.4 °C 11.8 °C 1006.7 hPa SSW 17.7 km/h 24.1 km/h 74% 0 mm 0.0 W/m2
01:32 16.3 °C 11.7 °C 1006.7 hPa South 20.9 km/h 24.1 km/h 74% 0 mm 0.0 W/m2
01:42 16.3 °C 11.5 °C 1006.7 hPa SSW 16.3 km/h 24.1 km/h 73% 0 mm 0.0 W/m2
01:47 16.3 °C 11.5 °C 1006.7 hPa SSW 16.3 km/h 19.3 km/h 73% 0 mm 0.0 W/m2
01:52 16.3 °C 11.5 °C 1006.7 hPa SSW 22.7 km/h 22.7 km/h 73% 0 mm 0.0 W/m2
02:02 16.2 °C 11.6 °C 1006.7 hPa SSW 13 km/h 22.5 km/h 74% 0 mm 0.0 W/m2
02:07 16.1 °C 11.9 °C 1006.7 hPa SSW 14.3 km/h 20.9 km/h 76% 0 mm 0.0 W/m2
02:12 16 °C 11.6 °C 1006.7 hPa SSW 19.5 km/h 22.5 km/h 75% 0 mm 0.0 W/m2
02:22 15.8 °C 11.6 °C 1006.3 hPa SSW 14.3 km/h 22.5 km/h 76% 0 mm 0.0 W/m2
02:27 15.8 °C 11.6 °C 1006.3 hPa SSW 20.9 km/h 24.1 km/h 76% 0 mm 0.0 W/m2
02:37 15.7 °C 11.5 °C 1006.3 hPa SSW 14.3 km/h 20.9 km/h 76% 0 mm 0.0 W/m2
02:47 15.6 °C 11.6 °C 1006.3 hPa SSW 16.3 km/h 24.1 km/h 77% 0 mm 0.0 W/m2
02:52 15.6 °C 11.6 °C 1006.3 hPa SSW 19.5 km/h 24.1 km/h 77% 0 mm 0.0 W/m2
02:57 15.5 °C 11.5 °C 1006 hPa SSW 19.5 km/h 20.9 km/h 77% 0 mm 0.0 W/m2
03:02 15.5 °C 11.5 °C 1006 hPa SSW 19.5 km/h 24.1 km/h 77% 0 mm 0.0 W/m2
03:07 15.4 °C 11.4 °C 1006 hPa SSW 14.3 km/h 22.5 km/h 77% 0 mm 0.0 W/m2
03:12 15.4 °C 11.4 °C 1006 hPa SSW 11.1 km/h 20.9 km/h 77% 0 mm 0.0 W/m2
03:17 15.3 °C 11.5 °C 1006 hPa SSW 19.5 km/h 19.5 km/h 78% 0 mm 0.0 W/m2
03:22 15.3 °C 11.5 °C 1006 hPa SSW 16.3 km/h 19.3 km/h 78% 0 mm 0.0 W/m2
03:32 15.3 °C 11.5 °C 1006 hPa SSW 14.3 km/h 19.3 km/h 78% 0 mm 0.0 W/m2
03:38 15.2 °C 11.4 °C 1006 hPa SSW 17.7 km/h 19.3 km/h 78% 0 mm 0.0 W/m2
03:43 15.2 °C 11.4 °C 1006 hPa SSW 17.7 km/h 19.3 km/h 78% 0 mm 0.0 W/m2
03:48 15.2 °C 11.4 °C 1006.3 hPa SSW 19.5 km/h 19.5 km/h 78% 0 mm 0.0 W/m2
03:53 15.2 °C 11.4 °C 1006.3 hPa SSW 16.3 km/h 17.7 km/h 78% 0 mm 0.0 W/m2
03:58 15.2 °C 11.4 °C 1006.3 hPa SSW 14.3 km/h 16.1 km/h 78% 0 mm 0.0 W/m2
04:08 15.1 °C 11.5 °C 1006.7 hPa SSW 13 km/h 17.7 km/h 79% 0 mm 0.0 W/m2
04:23 15 °C 11.2 °C 1006.7 hPa SSW 14.3 km/h 16.1 km/h 78% 0 mm 0.0 W/m2
04:28 15 °C 11.2 °C 1006.7 hPa SSW 9.7 km/h 14.5 km/h 78% 0 mm 0.0 W/m2
04:34 15 °C 11.2 °C 1006.7 hPa SSW 7.9 km/h 14.5 km/h 78% 0 mm 0.0 W/m2
04:39 14.9 °C 11.3 °C 1006.7 hPa SSW 9.7 km/h 16.1 km/h 79% 0 mm 0.0 W/m2
04:49 14.8 °C 11.4 °C 1006.7 hPa SW 16.3 km/h 17.7 km/h 80% 0 mm 0.0 W/m2
04:54 14.8 °C 11.4 °C 1007 hPa SSW 11.1 km/h 17.7 km/h 80% 0 mm 0.0 W/m2
04:59 14.8 °C 11.4 °C 1007 hPa SSW 9.7 km/h 16.1 km/h 80% 0 mm 0.0 W/m2
05:04 14.7 °C 11.3 °C 1007 hPa SSW 9.7 km/h 14.5 km/h 80% 0 mm 0.0 W/m2
05:09 14.7 °C 11.3 °C 1007 hPa SSW 14.3 km/h 16.1 km/h 80% 0 mm 0.0 W/m2
05:14 14.7 °C 11.3 °C 1007 hPa SSW 11.1 km/h 17.7 km/h 80% 0 mm 0.0 W/m2
05:19 14.7 °C 11.3 °C 1007 hPa SSW 14.3 km/h 17.7 km/h 80% 0 mm 0.0 W/m2
05:24 14.7 °C 11.3 °C 1007 hPa SSW 11.1 km/h 14.5 km/h 80% 0 mm 0.0 W/m2
05:29 14.7 °C 11.3 °C 1007 hPa SSW 11.1 km/h 14.5 km/h 80% 0 mm 0.0 W/m2
05:34 14.7 °C 11.3 °C 1007 hPa SSW 9.7 km/h 12.9 km/h 80% 0 mm 0.0 W/m2
05:39 14.6 °C 11.2 °C 1007 hPa SSW 14.3 km/h 20.9 km/h 80% 0 mm 0.0 W/m2
05:44 14.6 °C 11.4 °C 1007 hPa SSW 14.3 km/h 19.3 km/h 81% 0 mm 0.0 W/m2
05:50 14.6 °C 11.4 °C 1007.3 hPa SSW 9.7 km/h 14.5 km/h 81% 0 mm 0.0 W/m2
05:55 14.6 °C 11.4 °C 1007.3 hPa SSW 11.1 km/h 16.1 km/h 81% 0 mm 0.0 W/m2
06:04 14.6 °C 11.4 °C 1007.3 hPa SSW 14.3 km/h 19.3 km/h 81% 0 mm 0.0 W/m2
06:10 14.6 °C 11.4 °C 1007.3 hPa SSW 14.3 km/h 19.3 km/h 81% 0 mm 0.0 W/m2
06:15 14.5 °C 11.3 °C 1007.7 hPa SSW 16.3 km/h 17.7 km/h 81% 0 mm 0.0 W/m2
06:20 14.5 °C 11.5 °C 1007.7 hPa SSW 13 km/h 17.7 km/h 82% 0 mm 0.0 W/m2
06:25 14.4 °C 11.4 °C 1007.7 hPa SSW 14.3 km/h 17.7 km/h 82% 0 mm 7.0 W/m2
06:30 14.4 °C 11.4 °C 1007.7 hPa SSW 17.7 km/h 17.7 km/h 82% 0 mm 11.0 W/m2
06:40 14.5 °C 11.5 °C 1008 hPa SSW 20.9 km/h 22.5 km/h 82% 0 mm 25.0 W/m2
06:50 14.6 °C 11.6 °C 1008 hPa SSW 22.7 km/h 22.7 km/h 82% 0 mm 42.0 W/m2
06:56 14.7 °C 11.5 °C 1008 hPa SSW 20.9 km/h 27.4 km/h 81% 0 mm 53.0 W/m2
07:01 14.8 °C 11.6 °C 1008 hPa SSW 16.3 km/h 24.1 km/h 81% 0 mm 62.0 W/m2
07:07 14.8 °C 11.4 °C 1008 hPa SSW 16.3 km/h 22.5 km/h 80% 0 mm 77.0 W/m2
07:14 14.9 °C 11.5 °C 1008 hPa SSW 11.1 km/h 19.3 km/h 80% 0 mm 95.0 W/m2
07:24 14.9 °C 11.5 °C 1008 hPa SSW 13 km/h 20.9 km/h 80% 0 mm 42.0 W/m2
07:34 15.2 °C 11.6 °C 1008.4 hPa SSW 14.3 km/h 20.9 km/h 79% 0 mm 197.0 W/m2
07:45 15.4 °C 11.4 °C 1008.4 hPa SSW 16.3 km/h 22.5 km/h 77% 0 mm 58.0 W/m2
07:55 15.5 °C 11.5 °C 1008.4 hPa SSW 19.5 km/h 24.1 km/h 77% 0 mm 123.0 W/m2
08:10 16.1 °C 11.5 °C 1008.4 hPa South 22.7 km/h 24.1 km/h 74% 0 mm 345.0 W/m2
08:25 16.5 °C 11.6 °C 1008.7 hPa South 20.9 km/h 25.7 km/h 73% 0 mm 425.0 W/m2
08:45 16.8 °C 11.3 °C 1008.7 hPa South 19.5 km/h 32.2 km/h 70% 0 mm 445.0 W/m2
09:35 18.6 °C 10.7 °C 1009 hPa South 22.7 km/h 29 km/h 60% 0 mm 613.0 W/m2
09:55 19.3 °C 10.8 °C 1009 hPa South 14.3 km/h 25.7 km/h 58% 0 mm 673.0 W/m2
10:00 19.7 °C 10.7 °C 1009.4 hPa South 22.7 km/h 25.7 km/h 56% 0 mm 740.0 W/m2
10:10 19.4 °C 10.4 °C 1009.4 hPa SSW 16.3 km/h 27.4 km/h 56% 0 mm 79.0 W/m2
10:25 20.3 °C 10.7 °C 1009.4 hPa SSW 22.7 km/h 27.4 km/h 54% 0 mm 751.0 W/m2
10:36 20.8 °C 10.6 °C 1009.4 hPa SSW 20.9 km/h 27.4 km/h 52% 0 mm 814.0 W/m2
10:51 21.5 °C 10 °C 1009 hPa SSW 27.4 km/h 30.6 km/h 48% 0 mm 714.0 W/m2
11:06 22.2 °C 9.4 °C 1009 hPa SSW 20.9 km/h 32.2 km/h 44% 0 mm 860.0 W/m2
11:20 23 °C 9.7 °C 1009.4 hPa South 13 km/h 27.4 km/h 43% 0 mm 905.0 W/m2
11:30 23.4 °C 9.4 °C 1009.4 hPa SSW 22.7 km/h 29 km/h 41% 0 mm 911.0 W/m2
11:38 23.6 °C 8.8 °C 1009.4 hPa South 20.9 km/h 29 km/h 39% 0 mm 926.0 W/m2
11:46 24.4 °C 8.8 °C 1009.4 hPa South 22.7 km/h 27.4 km/h 37% 0 mm 923.0 W/m2
15:21 30.6 °C 2.8 °C 1007.7 hPa South 20.9 km/h 33.8 km/h 17% 0 mm 816.0 W/m2
16:13 30.9 °C 0.3 °C 1007 hPa South 24.1 km/h 30.6 km/h 14% 0 mm 687.0 W/m2
16:26 31.3 °C -0.4 °C 1007 hPa South 24.1 km/h 29 km/h 13% 0 mm 642.0 W/m2
16:37 31.2 °C -0.5 °C 1007 hPa SSW 17.7 km/h 22.5 km/h 13% 0 mm 612.0 W/m2
16:48 31.1 °C -0.6 °C 1007 hPa South 17.7 km/h 27.4 km/h 13% 0 mm 580.0 W/m2
17:18 31.3 °C -0.4 °C 1006.7 hPa SSW 20.9 km/h 32.2 km/h 13% 0 mm 480.0 W/m2
17:34 31.2 °C -0.5 °C 1006.7 hPa South 19.5 km/h 29 km/h 13% 0 mm 427.0 W/m2
17:57 31.1 °C -0.6 °C 1006.7 hPa SSW 22.7 km/h 30.6 km/h 13% 0 mm 338.0 W/m2
18:06 31 °C -1.7 °C 1006.7 hPa South 19.5 km/h 30.6 km/h 12% 0 mm 301.0 W/m2
18:14 30.9 °C -0.7 °C 1006.7 hPa SSE 24.1 km/h 25.7 km/h 13% 0 mm 271.0 W/m2
18:19 30.7 °C -0.9 °C 1007 hPa SSE 19.5 km/h 24.1 km/h 13% 0 mm 248.0 W/m2
18:25 30.6 °C -1 °C 1007 hPa SSE 25.9 km/h 25.9 km/h 13% 0 mm 227.0 W/m2
18:30 30.6 °C -1 °C 1007 hPa SSE 17.7 km/h 32.2 km/h 13% 0 mm 204.0 W/m2
18:39 30.6 °C -1 °C 1007 hPa South 22.7 km/h 27.4 km/h 13% 0 mm 163.0 W/m2
18:44 30.4 °C -1.1 °C 1007 hPa South 28.8 km/h 30.6 km/h 13% 0 mm 141.0 W/m2
18:49 30.3 °C -2.3 °C 1007 hPa SSE 16.3 km/h 25.7 km/h 12% 0 mm 120.0 W/m2
18:59 30.2 °C -2.4 °C 1007 hPa SSE 19.5 km/h 25.7 km/h 12% 0 mm 81.0 W/m2
19:13 30.1 °C -2.4 °C 1007 hPa SSE 16.3 km/h 22.5 km/h 12% 0 mm 47.0 W/m2
19:24 29.9 °C -2.6 °C 1007.3 hPa South 17.7 km/h 27.4 km/h 12% 0 mm 19.0 W/m2
19:38 29.6 °C -2.8 °C 1007.3 hPa SSE 19.5 km/h 25.7 km/h 12% 0 mm 9.0 W/m2
19:54 29.2 °C -3.1 °C 1007.7 hPa South 25.9 km/h 25.9 km/h 12% 0 mm 0.0 W/m2
20:07 28.9 °C -2.3 °C 1008 hPa South 22.7 km/h 25.7 km/h 13% 0 mm 0.0 W/m2
20:17 28.6 °C -1.5 °C 1008 hPa SSW 14.3 km/h 24.1 km/h 14% 0 mm 0.0 W/m2
20:29 28.4 °C -1.7 °C 1008 hPa South 13 km/h 22.5 km/h 14% 0 mm 0.0 W/m2
20:38 28.2 °C -1.8 °C 1008 hPa South 19.5 km/h 25.7 km/h 14% 0 mm 0.0 W/m2
20:49 27.9 °C -1.1 °C 1008.4 hPa South 16.3 km/h 19.3 km/h 15% 0 mm 0.0 W/m2
21:00 27.7 °C -1.3 °C 1008.4 hPa SSW 13 km/h 20.9 km/h 15% 0 mm 0.0 W/m2
21:10 27.2 °C 6.6 °C 1008.4 hPa South 16.3 km/h 33.8 km/h 27% 0 mm 0.0 W/m2
21:15 26.8 °C 6.8 °C 1008.7 hPa SSW 17.7 km/h 25.7 km/h 28% 0 mm 0.0 W/m2
21:24 26.3 °C 7.8 °C 1008.7 hPa SSW 19.5 km/h 25.7 km/h 31% 0 mm 0.0 W/m2
21:30 26.1 °C 8.1 °C 1008.7 hPa SSW 17.7 km/h 27.4 km/h 32% 0 mm 0.0 W/m2
21:35 26 °C 8.5 °C 1008.7 hPa SSW 25.9 km/h 25.9 km/h 33% 0 mm 0.0 W/m2
21:41 25.8 °C 8.3 °C 1008.7 hPa SSW 17.7 km/h 27.4 km/h 33% 0 mm 0.0 W/m2
21:50 25.5 °C 8.5 °C 1008.7 hPa SSW 17.7 km/h 24.1 km/h 34% 0 mm 0.0 W/m2
22:00 25.2 °C 9.1 °C 1009 hPa SSW 14.3 km/h 19.3 km/h 36% 0 mm 0.0 W/m2
22:05 25 °C 8.9 °C 1009 hPa SW 19.5 km/h 24.1 km/h 36% 0 mm 0.0 W/m2
22:10 24.9 °C 9.2 °C 1008.7 hPa SSW 14.3 km/h 22.5 km/h 37% 0 mm 0.0 W/m2
22:22 24.6 °C 8.9 °C 1009 hPa SSW 13 km/h 19.3 km/h 37% 0 mm 0.0 W/m2
22:34 24.4 °C 9.2 °C 1009 hPa SW 14.3 km/h 17.7 km/h 38% 0 mm 0.0 W/m2
22:44 24.1 °C 9.3 °C 1009 hPa SW 13 km/h 17.7 km/h 39% 0 mm 0.0 W/m2
22:54 23.9 °C 9.1 °C 1009 hPa SW 19.5 km/h 22.5 km/h 39% 0 mm 0.0 W/m2
23:13 23.6 °C 9.6 °C 1009.4 hPa SSW 14.3 km/h 17.7 km/h 41% 0 mm 0.0 W/m2
23:24 23.4 °C 9.4 °C 1009 hPa SW 16.3 km/h 20.9 km/h 41% 0 mm 0.0 W/m2
23:33 23.3 °C 9.7 °C 1009.4 hPa SW 17.7 km/h 20.9 km/h 42% 0 mm 0.0 W/m2
23:51 23 °C 9.4 °C 1009.4 hPa SSW 14.3 km/h 17.7 km/h 42% 0 mm 0.0 W/m2
23:57 22.9 °C 9.7 °C 1009.4 hPa SSW 14.3 km/h 17.7 km/h 43% 0 mm 0.0 W/m2
Canyon Roadhouse, Fishriver Canyon, Namibia
Compliments of Weather Underground - 2.25 mb